createdAt,value
2022-08-17T00:04:19.864Z,95124.31
2022-08-17T00:09:22.767Z,95128.19
2022-08-17T00:14:25.563Z,95115.81
2022-08-17T00:19:28.674Z,95115.75
2022-08-17T00:24:31.423Z,95109.16
2022-08-17T00:29:34.254Z,95102.91
2022-08-17T00:34:38.395Z,95097.41
2022-08-17T00:39:42.092Z,95106.09
2022-08-17T00:44:44.948Z,95101.78
2022-08-17T00:49:48.523Z,95096.97
2022-08-17T00:54:52.299Z,95091.84
2022-08-17T01:00:02.742Z,95088.78
2022-08-17T01:05:06.458Z,95082.44
2022-08-17T01:10:58.522Z,95083.03
2022-08-17T01:15:49.305Z,95087.00
2022-08-17T01:21:12.048Z,95084.31
2022-08-17T01:26:35.594Z,95083.31
2022-08-17T01:31:54.813Z,95083.03
2022-08-17T01:36:58.872Z,95085.13
2022-08-17T01:42:20.300Z,95090.94
2022-08-17T01:47:36.021Z,95091.66
2022-08-17T01:52:39.978Z,95084.59
2022-08-17T01:57:45.515Z,95085.28
2022-08-17T02:02:49.265Z,95084.63
2022-08-17T02:08:00.603Z,95067.50
2022-08-17T02:13:03.673Z,95071.53
2022-08-17T02:18:07.764Z,95074.69
2022-08-17T02:23:10.667Z,95082.66
2022-08-17T02:28:13.673Z,95087.38
2022-08-17T02:33:16.941Z,95074.69
2022-08-17T02:38:23.440Z,95072.13
2022-08-17T02:43:27.487Z,95060.53
2022-08-17T02:48:32.037Z,95059.31
2022-08-17T02:53:35.739Z,95053.84
2022-08-17T02:58:40.235Z,95054.53
2022-08-17T03:03:43.828Z,95044.97
2022-08-17T03:08:46.983Z,95049.63
2022-08-17T03:13:50.981Z,95036.28
2022-08-17T03:18:55.569Z,95029.13
2022-08-17T03:23:58.737Z,95030.50
2022-08-17T03:29:02.048Z,95037.50
2022-08-17T03:34:04.849Z,95042.84
2022-08-17T03:39:08.026Z,95049.09
2022-08-17T03:44:11.747Z,95053.63
2022-08-17T03:49:33.143Z,95056.13
2022-08-17T03:54:54.710Z,95054.63
2022-08-17T03:59:58.195Z,95061.31
2022-08-17T04:05:01.327Z,95072.69
2022-08-17T04:10:04.925Z,95067.69
2022-08-17T04:15:09.026Z,95072.44
2022-08-17T04:20:12.734Z,95076.75
2022-08-17T04:25:15.565Z,95069.25
2022-08-17T04:30:19.152Z,95065.63
2022-08-17T04:35:22.377Z,95050.41
2022-08-17T04:40:42.926Z,95064.00
2022-08-17T04:45:55.632Z,95053.69
2022-08-17T04:51:00.089Z,95049.81
2022-08-17T04:56:02.900Z,95061.22
2022-08-17T05:01:07.465Z,95055.28
2022-08-17T05:06:10.344Z,95049.75
2022-08-17T05:11:13.260Z,95052.94
2022-08-17T05:16:16.540Z,95053.75
2022-08-17T05:21:20.153Z,95057.47
2022-08-17T05:26:26.902Z,95064.50
2022-08-17T05:31:31.502Z,95068.63
2022-08-17T05:36:38.025Z,95071.78
2022-08-17T05:41:47.554Z,95070.63
2022-08-17T05:46:50.699Z,95078.09
2022-08-17T05:51:54.052Z,95082.06
2022-08-17T05:56:56.824Z,95073.84
2022-08-17T06:01:59.870Z,95075.06
2022-08-17T06:07:02.629Z,95075.94
2022-08-17T06:12:06.580Z,95082.38
2022-08-17T06:17:17.038Z,95092.06
2022-08-17T06:22:20.458Z,95098.53
2022-08-17T06:27:23.714Z,95093.56
2022-08-17T06:32:26.508Z,95108.78
2022-08-17T06:37:29.328Z,95106.69
2022-08-17T06:42:59.871Z,95114.06
2022-08-17T06:47:56.228Z,95115.88
2022-08-17T06:52:59.686Z,95116.22
2022-08-17T06:58:05.747Z,95112.94
2022-08-17T07:03:21.209Z,95116.53
2022-08-17T07:08:29.141Z,95130.41
2022-08-17T07:13:33.135Z,95138.81
2022-08-17T07:18:36.956Z,95141.81
2022-08-17T07:23:41.003Z,95142.19
2022-08-17T07:28:45.249Z,95143.13
2022-08-17T07:33:48.002Z,95138.16
2022-08-17T07:38:51.256Z,95140.06
2022-08-17T07:43:54.602Z,95155.97
2022-08-17T07:48:57.815Z,95163.91
2022-08-17T07:54:13.583Z,95167.97
2022-08-17T07:59:17.072Z,95171.75
2022-08-17T08:04:25.836Z,95173.72
2022-08-17T08:09:42.922Z,95172.13
2022-08-17T08:14:45.710Z,95156.53
2022-08-17T08:19:48.449Z,95169.59
2022-08-17T08:24:51.445Z,95154.66
2022-08-17T08:29:55.401Z,95166.44
2022-08-17T08:35:02.826Z,95155.38
2022-08-17T08:40:08.331Z,95159.34
2022-08-17T08:45:11.183Z,95151.81
2022-08-17T08:50:37.620Z,95157.34
2022-08-17T08:55:37.266Z,95153.06
2022-08-17T09:00:40.941Z,95140.03
2022-08-17T09:05:43.733Z,95135.59
2022-08-17T09:10:46.960Z,95135.53
2022-08-17T09:15:49.712Z,95139.19
2022-08-17T09:20:52.499Z,95150.59
2022-08-17T09:25:56.296Z,95146.63
2022-08-17T09:31:03.050Z,95141.81
2022-08-17T09:36:06.357Z,95134.50
2022-08-17T09:41:09.534Z,95134.38
2022-08-17T09:46:12.327Z,95132.75
2022-08-17T09:51:15.638Z,95133.69
2022-08-17T09:56:18.381Z,95135.81
2022-08-17T10:01:21.378Z,95141.06
2022-08-17T10:06:26.145Z,95136.97
2022-08-17T10:11:50.763Z,95143.47
2022-08-17T10:16:55.904Z,95137.44
2022-08-17T10:22:35.175Z,95143.66
2022-08-17T10:27:39.430Z,95135.00
2022-08-17T10:32:43.135Z,95122.50
2022-08-17T10:37:46.588Z,95122.38
2022-08-17T10:42:50.195Z,95127.41
2022-08-17T10:47:56.122Z,95126.38
2022-08-17T10:53:00.501Z,95142.91
2022-08-17T10:58:03.848Z,95136.59
2022-08-17T11:03:07.418Z,95136.94
2022-08-17T11:08:12.236Z,95140.44
2022-08-17T11:13:15.867Z,95134.66
2022-08-17T11:18:20.419Z,95141.59
2022-08-17T11:23:23.949Z,95142.47
2022-08-17T11:28:28.426Z,95137.00
2022-08-17T11:33:31.795Z,95134.88
2022-08-17T11:38:35.096Z,95125.69
2022-08-17T11:43:45.646Z,95123.09
2022-08-17T11:49:07.044Z,95121.78
2022-08-17T11:59:34.601Z,95133.88
2022-08-17T12:04:38.769Z,95138.31
2022-08-17T12:09:42.056Z,95137.22
2022-08-17T12:15:08.967Z,95141.69
2022-08-17T12:20:08.114Z,95140.53
2022-08-17T12:25:11.130Z,95137.91
2022-08-17T12:30:13.971Z,95128.16
2022-08-17T12:35:17.495Z,95131.22
2022-08-17T12:40:22.537Z,95118.78
2022-08-17T12:45:25.307Z,95119.22
2022-08-17T12:50:30.250Z,95103.22
2022-08-17T12:55:34.058Z,95105.69
2022-08-17T13:00:38.024Z,95097.50
2022-08-17T13:05:40.878Z,95091.94
2022-08-17T13:10:43.912Z,95103.50
2022-08-17T13:15:47.151Z,95093.59
2022-08-17T13:20:51.740Z,95098.31
2022-08-17T13:25:54.516Z,95093.44
2022-08-17T13:30:57.442Z,95073.81
2022-08-17T13:36:00.188Z,95091.84
2022-08-17T13:41:05.668Z,95083.94
2022-08-17T13:46:08.426Z,95080.31
2022-08-17T13:51:11.456Z,95091.81
2022-08-17T13:56:38.007Z,95083.63
2022-08-17T14:01:37.256Z,95091.16
2022-08-17T14:06:52.275Z,95076.38
2022-08-17T14:11:56.994Z,95063.91
2022-08-17T14:17:01.030Z,95054.16
2022-08-17T14:22:05.001Z,95041.06
2022-08-17T14:27:09.109Z,95039.91
2022-08-17T14:32:12.430Z,95034.34
2022-08-17T14:37:15.834Z,95009.88
2022-08-17T14:42:20.905Z,95005.38
2022-08-17T14:47:24.859Z,95008.72
2022-08-17T14:52:29.019Z,95008.34
2022-08-17T14:57:34.283Z,95005.66
2022-08-17T15:02:37.516Z,95007.34
2022-08-17T15:07:40.482Z,94994.84
2022-08-17T15:12:43.263Z,95008.13
2022-08-17T15:17:47.707Z,95015.97
2022-08-17T15:22:50.689Z,95011.84
2022-08-17T15:27:54.475Z,95016.59
2022-08-17T15:32:57.241Z,95033.72
2022-08-17T15:38:04.643Z,95037.56
2022-08-17T15:43:11.648Z,95042.22
2022-08-17T15:48:15.784Z,95025.75
2022-08-17T15:53:18.886Z,95021.66
2022-08-17T15:58:21.999Z,95032.09
2022-08-17T16:04:01.878Z,95029.00
2022-08-17T16:08:59.481Z,95030.31
2022-08-17T16:14:02.384Z,95035.69
2022-08-17T16:19:05.179Z,95034.63
2022-08-17T16:24:13.151Z,95028.34
2022-08-17T16:29:17.903Z,95025.53
2022-08-17T16:34:21.218Z,95029.91
2022-08-17T16:39:24.508Z,95021.03
2022-08-17T16:44:29.103Z,95007.72
2022-08-17T16:49:36.929Z,95008.72
2022-08-17T16:54:43.826Z,95008.16
2022-08-17T16:59:50.284Z,95004.59
2022-08-17T17:04:53.082Z,95001.25
2022-08-17T17:09:56.187Z,94990.94
2022-08-17T17:15:01.417Z,94983.63
2022-08-17T17:20:04.583Z,94985.25
2022-08-17T17:43:40.892Z,94968.69
2022-08-17T17:49:02.908Z,94983.38
2022-08-17T17:54:12.778Z,94971.25
2022-08-17T17:59:39.337Z,94979.25
2022-08-17T18:05:05.033Z,94971.22
2022-08-17T18:10:30.277Z,94953.63
2022-08-17T18:15:54.685Z,94966.25
2022-08-17T18:21:19.465Z,94935.91
2022-08-17T18:26:44.801Z,94949.00
2022-08-17T18:32:08.360Z,94952.94
2022-08-17T18:37:32.955Z,94949.03
2022-08-17T18:42:56.021Z,94954.56
2022-08-17T18:48:19.125Z,94969.53
2022-08-17T18:53:42.196Z,94962.47
2022-08-17T18:59:05.404Z,94960.47
2022-08-17T19:04:28.635Z,94962.03
2022-08-17T19:10:03.071Z,94950.63
2022-08-17T19:15:26.160Z,94935.66
2022-08-17T19:20:49.229Z,94927.75
2022-08-17T19:26:50.335Z,94950.91
2022-08-17T19:31:56.231Z,94954.00
2022-08-17T19:37:20.944Z,94966.25
2022-08-17T19:42:47.503Z,94979.16
2022-08-17T19:51:59.954Z,94982.72
2022-08-17T19:57:02.893Z,94980.00
2022-08-17T20:02:05.817Z,94978.75
2022-08-17T20:07:08.710Z,94987.38
2022-08-17T20:12:11.425Z,94989.75
2022-08-17T20:17:14.245Z,94986.56
2022-08-17T20:22:16.987Z,94992.84
2022-08-17T20:27:21.940Z,94995.19
2022-08-17T20:32:44.121Z,94988.88
2022-08-17T20:37:46.898Z,94980.22
2022-08-17T20:42:49.932Z,94981.69
2022-08-17T20:48:30.491Z,94962.06
2022-08-17T20:53:21.703Z,94943.94
2022-08-17T20:58:24.403Z,94942.75
2022-08-17T21:03:51.269Z,94945.47
2022-08-17T21:08:54.457Z,94950.91
2022-08-17T21:13:57.476Z,94950.09
2022-08-17T21:19:00.166Z,94950.84
2022-08-17T21:24:02.877Z,94946.13
2022-08-17T21:29:29.847Z,94940.66
2022-08-17T21:34:28.342Z,94934.75
2022-08-17T21:39:33.206Z,94932.38
2022-08-17T21:44:37.030Z,94941.78
2022-08-17T21:49:39.782Z,94939.38
2022-08-17T21:54:44.021Z,94938.59
2022-08-17T21:59:46.745Z,94951.25
2022-08-17T22:04:49.821Z,94943.75
2022-08-17T22:09:52.517Z,94951.91
2022-08-17T22:14:55.346Z,94976.59
2022-08-17T22:19:58.167Z,95039.69
2022-08-17T22:25:01.522Z,95070.88
2022-08-17T22:30:05.171Z,95089.47
2022-08-17T22:35:10.944Z,95097.94
2022-08-17T22:40:13.670Z,95119.00
2022-08-17T22:45:16.491Z,95172.56
2022-08-17T22:50:19.180Z,95192.34
2022-08-17T22:55:39.575Z,95199.44
2022-08-17T23:00:42.255Z,95211.63
2022-08-17T23:05:44.973Z,95212.22
2022-08-17T23:10:47.842Z,95221.06
2022-08-17T23:15:50.659Z,95214.13
2022-08-17T23:20:53.395Z,95205.78
2022-08-17T23:25:56.216Z,95208.84
2022-08-17T23:30:58.922Z,95215.91
2022-08-17T23:36:01.772Z,95220.34
2022-08-17T23:41:04.930Z,95228.41
2022-08-17T23:46:08.006Z,95239.56
2022-08-17T23:51:10.846Z,95252.28
2022-08-17T23:56:13.566Z,95253.19
